createdAt,value
2022-12-25T00:00:02.007Z,65.75
2022-12-25T00:02:30.866Z,65.44
2022-12-25T00:04:58.375Z,65.65
2022-12-25T00:07:25.763Z,65.38
2022-12-25T00:09:53.160Z,65.52
2022-12-25T00:12:22.199Z,65.57
2022-12-25T00:14:49.620Z,65.28
2022-12-25T00:17:16.996Z,65.40
2022-12-25T00:19:45.682Z,65.24
2022-12-25T00:22:13.061Z,65.52
2022-12-25T00:24:40.671Z,65.33
2022-12-25T00:27:08.044Z,65.26
2022-12-25T00:29:35.598Z,65.19
2022-12-25T00:32:02.990Z,65.44
2022-12-25T00:34:30.391Z,65.61
2022-12-25T00:36:59.110Z,65.55
2022-12-25T00:39:26.589Z,65.38
2022-12-25T00:42:11.883Z,65.18
2022-12-25T00:44:39.246Z,65.02
2022-12-25T00:47:06.696Z,65.06
2022-12-25T00:51:54.988Z,65.06
2022-12-25T00:54:23.679Z,65.26
2022-12-25T00:56:51.043Z,65.18
2022-12-25T00:59:18.421Z,65.08
2022-12-25T01:01:45.862Z,65.20
2022-12-25T01:04:13.369Z,65.01
2022-12-25T01:06:40.819Z,65.15
2022-12-25T01:09:25.533Z,64.82
2022-12-25T01:11:54.225Z,64.68
2022-12-25T01:14:21.641Z,64.91
2022-12-25T01:16:49.030Z,64.99
2022-12-25T01:19:16.414Z,64.83
2022-12-25T01:21:43.816Z,64.72
2022-12-25T01:24:11.207Z,65.08
2022-12-25T01:26:38.891Z,65.06
2022-12-25T01:29:07.585Z,64.95
2022-12-25T01:31:34.973Z,65.17
2022-12-25T01:34:02.457Z,65.49
2022-12-25T01:36:29.832Z,65.21
2022-12-25T01:38:57.250Z,65.07
2022-12-25T01:41:25.208Z,65.17
2022-12-25T01:44:04.082Z,65.04
2022-12-25T01:46:32.766Z,64.99
2022-12-25T01:49:01.815Z,65.08
2022-12-25T01:51:30.856Z,64.92
2022-12-25T01:53:58.967Z,65.13
2022-12-25T01:56:26.359Z,64.99
2022-12-25T01:58:53.847Z,65.07
2022-12-25T02:01:21.385Z,65.18
2022-12-25T02:03:50.156Z,64.95
2022-12-25T02:06:17.527Z,65.20
2022-12-25T02:08:45.575Z,65.23
2022-12-25T02:11:32.934Z,65.06
2022-12-25T02:14:00.348Z,65.14
2022-12-25T02:16:29.117Z,64.98
2022-12-25T02:18:59.328Z,65.12
2022-12-25T02:21:31.338Z,65.06
2022-12-25T02:24:29.798Z,65.14
2022-12-25T02:27:04.174Z,64.88
2022-12-25T02:29:34.298Z,64.88
2022-12-25T02:32:02.928Z,64.92
2022-12-25T02:34:32.635Z,64.94
2022-12-25T02:37:03.474Z,65.03
2022-12-25T02:39:51.262Z,64.94
2022-12-25T02:42:20.490Z,64.77
2022-12-25T02:45:07.026Z,64.73
2022-12-25T02:47:52.358Z,64.68
2022-12-25T02:50:37.629Z,64.76
2022-12-25T02:53:23.007Z,64.61
2022-12-25T02:56:08.358Z,64.66
2022-12-25T02:58:50.105Z,64.52
2022-12-25T03:01:37.776Z,64.57
2022-12-25T03:04:24.520Z,64.52
2022-12-25T03:07:00.671Z,64.59
2022-12-25T03:09:46.652Z,64.56
2022-12-25T03:12:16.403Z,64.51
2022-12-25T03:15:01.775Z,64.49
2022-12-25T03:17:30.985Z,64.70
2022-12-25T03:20:16.058Z,64.48
2022-12-25T03:23:00.842Z,64.58
2022-12-25T03:25:45.787Z,64.51
2022-12-25T03:28:13.163Z,64.63
2022-12-25T03:31:11.796Z,64.58
2022-12-25T03:34:08.652Z,64.40
2022-12-25T03:36:40.513Z,64.36
2022-12-25T03:39:28.434Z,64.63
2022-12-25T03:42:16.200Z,64.92
2022-12-25T03:45:05.942Z,64.90
2022-12-25T03:48:06.998Z,64.69
2022-12-25T03:50:55.126Z,64.89
2022-12-25T03:53:42.551Z,65.01
2022-12-25T03:56:27.409Z,64.69
2022-12-25T03:59:17.783Z,64.93
2022-12-25T04:02:06.658Z,64.95
2022-12-25T04:04:51.921Z,64.86
2022-12-25T04:07:38.374Z,65.10
2022-12-25T04:10:24.679Z,65.06
2022-12-25T04:13:09.523Z,64.80
2022-12-25T04:15:54.326Z,65.26
2022-12-25T04:18:39.339Z,65.14
2022-12-25T04:21:24.548Z,65.29
2022-12-25T04:24:11.234Z,65.34
2022-12-25T04:26:56.063Z,65.24
2022-12-25T04:29:41.010Z,65.23
2022-12-25T04:32:25.879Z,65.34
2022-12-25T04:35:10.564Z,65.32
2022-12-25T04:37:37.948Z,65.12
2022-12-25T04:40:07.999Z,65.18
2022-12-25T04:42:35.379Z,65.26
2022-12-25T04:45:02.768Z,65.22
2022-12-25T04:47:30.131Z,65.23
2022-12-25T04:49:57.525Z,65.49
2022-12-25T04:52:24.920Z,65.24
2022-12-25T04:54:52.298Z,65.04
2022-12-25T04:57:20.971Z,65.25
2022-12-25T04:59:48.371Z,65.22
2022-12-25T05:02:15.825Z,65.14
2022-12-25T05:04:43.313Z,65.14
2022-12-25T05:07:10.706Z,65.12
2022-12-25T05:09:41.559Z,65.21
2022-12-25T05:12:08.974Z,65.25
2022-12-25T05:14:37.688Z,65.13
2022-12-25T05:17:05.052Z,65.01
2022-12-25T05:19:32.612Z,65.18
2022-12-25T05:22:00.010Z,65.19
2022-12-25T05:24:27.621Z,64.95
2022-12-25T05:26:55.008Z,65.23
2022-12-25T05:29:22.397Z,65.22
2022-12-25T05:31:51.198Z,65.26
2022-12-25T05:34:18.622Z,65.16
2022-12-25T05:36:46.019Z,65.21
2022-12-25T05:39:13.406Z,65.05
2022-12-25T05:41:41.204Z,65.15
2022-12-25T05:44:08.605Z,65.18
2022-12-25T05:46:36.150Z,65.02
2022-12-25T05:49:05.555Z,65.03
2022-12-25T05:52:33.796Z,65.20
2022-12-25T05:55:01.321Z,65.08
2022-12-25T05:57:29.212Z,65.08
2022-12-25T05:59:56.621Z,65.05
2022-12-25T06:02:24.405Z,65.24
2022-12-25T06:04:53.296Z,64.97
2022-12-25T06:07:20.689Z,65.20
2022-12-25T06:09:48.402Z,65.17
2022-12-25T06:12:15.789Z,65.18
2022-12-25T06:14:43.186Z,65.15
2022-12-25T06:17:10.572Z,65.09
2022-12-25T06:19:38.152Z,65.12
2022-12-25T06:22:06.856Z,65.10
2022-12-25T06:24:34.822Z,65.02
2022-12-25T06:27:02.353Z,65.01
2022-12-25T06:29:29.769Z,64.97
2022-12-25T06:31:58.830Z,64.87
2022-12-25T06:34:27.020Z,65.00
2022-12-25T06:36:54.431Z,65.00
2022-12-25T06:39:25.312Z,65.08
2022-12-25T06:41:52.756Z,64.83
2022-12-25T06:44:20.175Z,65.06
2022-12-25T06:46:47.698Z,64.79
2022-12-25T06:49:15.080Z,64.97
2022-12-25T06:51:42.467Z,64.96
2022-12-25T06:54:09.876Z,64.96
2022-12-25T06:56:38.587Z,64.87
2022-12-25T06:59:07.018Z,64.77
2022-12-25T07:01:35.508Z,64.85
2022-12-25T07:04:03.708Z,64.64
2022-12-25T07:06:31.180Z,64.80
2022-12-25T07:08:58.568Z,64.80
2022-12-25T07:11:26.014Z,64.71
2022-12-25T07:13:54.717Z,64.92
2022-12-25T07:16:22.154Z,65.00
2022-12-25T07:18:49.568Z,64.89
2022-12-25T07:21:18.010Z,64.81
2022-12-25T07:23:45.841Z,64.81
2022-12-25T07:26:13.453Z,64.96
2022-12-25T07:28:40.934Z,64.95
2022-12-25T07:31:11.971Z,64.84
2022-12-25T07:33:39.412Z,64.98
2022-12-25T07:36:07.671Z,64.78
2022-12-25T07:38:40.234Z,64.81
2022-12-25T07:41:08.765Z,64.84
2022-12-25T07:43:36.167Z,64.94
2022-12-25T07:46:03.737Z,64.81
2022-12-25T07:48:32.509Z,64.73
2022-12-25T07:51:00.310Z,64.73
2022-12-25T07:53:27.698Z,64.94
2022-12-25T07:56:01.226Z,64.96
2022-12-25T07:58:28.701Z,64.72
2022-12-25T08:00:56.368Z,64.87
2022-12-25T08:03:24.000Z,64.83
2022-12-25T08:05:52.845Z,64.77
2022-12-25T08:08:20.234Z,64.66
2022-12-25T08:10:48.022Z,64.71
2022-12-25T08:13:15.427Z,64.83
2022-12-25T08:15:42.898Z,64.84
2022-12-25T08:18:10.407Z,64.86
2022-12-25T08:20:37.817Z,64.72
2022-12-25T08:23:06.591Z,64.97
2022-12-25T08:25:34.041Z,65.12
2022-12-25T08:28:01.853Z,64.79
2022-12-25T08:30:29.395Z,64.63
2022-12-25T08:32:56.839Z,65.06
2022-12-25T08:35:25.995Z,64.87
2022-12-25T08:37:53.363Z,64.69
2022-12-25T08:40:22.064Z,64.88
2022-12-25T08:42:49.446Z,64.65
2022-12-25T08:45:16.867Z,64.73
2022-12-25T08:47:44.295Z,64.76
2022-12-25T08:50:11.699Z,64.81
2022-12-25T08:52:39.443Z,64.82
2022-12-25T08:55:08.284Z,64.63
2022-12-25T08:57:36.989Z,64.86
2022-12-25T09:00:04.931Z,64.63
2022-12-25T09:02:32.870Z,64.68
2022-12-25T09:05:00.363Z,64.61
2022-12-25T09:07:27.773Z,64.79
2022-12-25T09:09:55.215Z,64.68
2022-12-25T09:12:22.611Z,64.66
2022-12-25T09:14:51.325Z,64.58
2022-12-25T09:17:19.491Z,64.78
2022-12-25T09:19:46.881Z,64.70
2022-12-25T09:22:14.342Z,64.59
2022-12-25T09:24:43.577Z,64.71
2022-12-25T09:27:11.039Z,64.87
2022-12-25T09:29:38.946Z,64.73
2022-12-25T09:32:08.380Z,64.88
2022-12-25T09:34:35.794Z,64.79
2022-12-25T09:37:03.227Z,64.67
2022-12-25T09:39:30.648Z,64.81
2022-12-25T09:41:59.815Z,64.65
2022-12-25T09:44:28.871Z,64.33
2022-12-25T09:46:57.693Z,64.60
2022-12-25T09:49:28.838Z,64.58
2022-12-25T09:51:58.085Z,64.70
2022-12-25T09:54:28.660Z,64.57
2022-12-25T09:56:56.082Z,64.36
2022-12-25T09:59:25.394Z,64.51
2022-12-25T10:02:11.429Z,64.54
2022-12-25T10:04:49.433Z,64.55
2022-12-25T10:07:19.629Z,64.25
2022-12-25T10:09:53.329Z,64.33
2022-12-25T10:12:27.160Z,64.19
2022-12-25T10:15:03.180Z,64.41
2022-12-25T10:17:36.315Z,64.21
2022-12-25T10:20:08.459Z,64.09
2022-12-25T10:22:37.199Z,64.35
2022-12-25T10:25:06.752Z,64.33
2022-12-25T10:27:36.114Z,64.45
2022-12-25T10:30:07.499Z,64.45
2022-12-25T10:32:34.916Z,64.56
2022-12-25T10:35:02.309Z,64.49
2022-12-25T10:37:31.046Z,64.22
2022-12-25T10:39:58.454Z,64.27
2022-12-25T10:42:31.712Z,64.54
2022-12-25T10:44:59.676Z,64.52
2022-12-25T10:47:29.075Z,64.52
2022-12-25T10:49:56.457Z,64.42
2022-12-25T10:52:24.829Z,64.34
2022-12-25T10:54:53.694Z,64.19
2022-12-25T10:57:22.485Z,64.59
2022-12-25T10:59:50.572Z,64.45
2022-12-25T11:02:21.149Z,64.41
2022-12-25T11:04:48.793Z,64.59
2022-12-25T11:07:22.752Z,64.53
2022-12-25T11:09:51.200Z,64.50
2022-12-25T11:12:20.620Z,64.29
2022-12-25T11:14:54.202Z,64.28
2022-12-25T11:17:23.139Z,64.53
2022-12-25T11:19:53.090Z,64.67
2022-12-25T11:22:20.537Z,64.70
2022-12-25T11:24:47.935Z,64.64
2022-12-25T11:27:25.662Z,64.66
2022-12-25T11:29:55.120Z,64.76
2022-12-25T11:32:24.342Z,64.83
2022-12-25T11:34:51.749Z,64.78
2022-12-25T11:37:21.152Z,64.73
2022-12-25T11:39:48.536Z,64.74
2022-12-25T11:42:18.052Z,64.64
2022-12-25T11:44:48.044Z,64.59
2022-12-25T11:47:18.377Z,64.69
2022-12-25T11:49:50.214Z,64.51
2022-12-25T11:52:18.399Z,64.64
2022-12-25T11:54:49.085Z,64.70
2022-12-25T11:57:16.489Z,64.84
2022-12-25T11:59:49.705Z,64.66
2022-12-25T12:02:22.934Z,64.73
2022-12-25T12:04:51.876Z,64.56
2022-12-25T12:07:21.687Z,64.67
2022-12-25T12:09:49.983Z,64.75
2022-12-25T12:12:19.517Z,64.74
2022-12-25T12:14:51.766Z,64.60
2022-12-25T12:17:19.223Z,64.73
2022-12-25T12:19:46.722Z,64.64
2022-12-25T12:22:20.258Z,64.57
2022-12-25T12:24:47.743Z,64.56
2022-12-25T12:27:20.497Z,64.75
2022-12-25T12:29:51.108Z,64.59
2022-12-25T12:32:28.971Z,64.71
2022-12-25T12:34:56.333Z,64.76
2022-12-25T12:37:26.287Z,64.66
2022-12-25T12:39:54.291Z,64.79
2022-12-25T12:42:25.840Z,64.74
2022-12-25T12:44:54.721Z,64.68
2022-12-25T12:47:30.009Z,64.65
2022-12-25T12:49:58.526Z,64.87
2022-12-25T12:52:26.897Z,64.96
2022-12-25T12:54:57.283Z,64.96
2022-12-25T12:57:26.821Z,64.97
2022-12-25T12:59:55.766Z,64.85
2022-12-25T13:02:39.000Z,65.04
2022-12-25T13:05:06.716Z,64.97
2022-12-25T13:07:44.239Z,64.98
2022-12-25T13:10:21.082Z,65.17
2022-12-25T13:12:52.885Z,65.15
2022-12-25T13:15:21.756Z,65.16
2022-12-25T13:17:50.008Z,65.19
2022-12-25T13:20:20.927Z,65.25
2022-12-25T13:22:52.769Z,65.31
2022-12-25T13:25:21.672Z,65.37
2022-12-25T13:27:55.858Z,65.24
2022-12-25T13:30:25.765Z,65.30
2022-12-25T13:32:53.457Z,65.40
2022-12-25T13:35:21.092Z,65.10
2022-12-25T13:37:48.489Z,65.28
2022-12-25T13:40:21.812Z,65.33
2022-12-25T13:42:48.258Z,65.25
2022-12-25T13:45:23.697Z,65.35
2022-12-25T13:47:55.425Z,65.37
2022-12-25T13:50:24.551Z,65.38
2022-12-25T13:52:52.003Z,65.40
2022-12-25T13:55:20.199Z,65.62
2022-12-25T13:57:51.352Z,65.53
2022-12-25T14:00:20.263Z,65.50
2022-12-25T14:02:47.788Z,65.43
2022-12-25T14:05:25.175Z,65.49
2022-12-25T14:07:53.042Z,65.68
2022-12-25T14:10:20.905Z,65.79
2022-12-25T14:12:50.034Z,65.64
2022-12-25T14:15:20.273Z,65.72
2022-12-25T14:17:47.743Z,65.82
2022-12-25T14:20:24.604Z,65.57
2022-12-25T14:22:52.118Z,65.75
2022-12-25T14:25:20.937Z,65.62
2022-12-25T14:27:49.555Z,65.69
2022-12-25T14:30:18.054Z,65.65
2022-12-25T14:32:46.223Z,65.85
2022-12-25T14:35:18.194Z,65.84
2022-12-25T14:37:50.080Z,65.78
2022-12-25T14:40:22.477Z,65.76
2022-12-25T14:42:55.496Z,65.59
2022-12-25T14:45:28.108Z,65.75
2022-12-25T14:47:56.384Z,65.61
2022-12-25T14:50:28.392Z,65.73
2022-12-25T14:52:57.134Z,65.75
2022-12-25T14:55:25.243Z,65.68
2022-12-25T14:57:53.875Z,65.69
2022-12-25T15:00:23.260Z,65.78
2022-12-25T15:02:51.068Z,65.83
2022-12-25T15:05:35.185Z,65.73
2022-12-25T15:08:19.082Z,66.00
2022-12-25T15:10:59.799Z,65.89
2022-12-25T15:13:28.374Z,66.02
2022-12-25T15:15:58.179Z,65.93
2022-12-25T15:18:26.442Z,65.86
2022-12-25T15:20:54.742Z,65.88
2022-12-25T15:23:25.236Z,66.01
2022-12-25T15:25:52.693Z,65.96
2022-12-25T15:28:20.072Z,65.82
2022-12-25T15:30:47.610Z,65.95
2022-12-25T15:33:15.572Z,66.03
2022-12-25T15:35:44.238Z,65.88
2022-12-25T15:38:12.174Z,66.03
2022-12-25T15:40:41.181Z,65.88
2022-12-25T15:43:20.888Z,65.85
2022-12-25T15:45:56.034Z,65.71
2022-12-25T15:48:23.428Z,65.89
2022-12-25T15:50:50.829Z,65.70
2022-12-25T15:53:18.227Z,65.80
2022-12-25T15:55:46.935Z,65.76
2022-12-25T15:58:15.036Z,65.77
2022-12-25T16:00:42.477Z,65.81
2022-12-25T16:03:10.138Z,65.72
2022-12-25T16:05:37.681Z,65.69
2022-12-25T16:08:05.423Z,65.82
2022-12-25T16:10:38.422Z,65.65
2022-12-25T16:13:07.518Z,65.76
2022-12-25T16:15:34.934Z,66.03
2022-12-25T16:18:02.329Z,65.99
2022-12-25T16:20:29.710Z,65.96
2022-12-25T16:22:57.110Z,65.73
2022-12-25T16:25:24.922Z,65.98
2022-12-25T16:27:52.292Z,65.90
2022-12-25T16:30:21.265Z,65.88
2022-12-25T16:32:49.783Z,65.96
2022-12-25T16:35:17.603Z,65.93
2022-12-25T16:37:45.012Z,65.82
2022-12-25T16:40:12.619Z,65.81
2022-12-25T16:42:40.223Z,65.79
2022-12-25T16:45:08.236Z,66.18
2022-12-25T16:47:36.941Z,65.76
2022-12-25T16:50:04.796Z,65.74
2022-12-25T16:52:32.667Z,65.84
2022-12-25T16:55:00.185Z,65.75
2022-12-25T16:57:28.486Z,65.81
2022-12-25T16:59:55.884Z,65.62
2022-12-25T17:02:23.471Z,65.96
2022-12-25T17:04:52.303Z,65.71
2022-12-25T17:07:19.690Z,65.73
2022-12-25T17:09:48.187Z,65.91
2022-12-25T17:12:15.726Z,65.69
2022-12-25T17:14:43.165Z,65.88
2022-12-25T17:17:10.528Z,65.86
2022-12-25T17:19:37.931Z,65.65
2022-12-25T17:22:07.232Z,65.72
2022-12-25T17:24:36.196Z,65.84
2022-12-25T17:27:03.694Z,65.80
2022-12-25T17:29:31.797Z,65.71
2022-12-25T17:31:59.224Z,65.79
2022-12-25T17:34:26.647Z,65.92
2022-12-25T17:36:54.093Z,65.72
2022-12-25T17:39:22.775Z,65.98
2022-12-25T17:41:50.348Z,65.69
2022-12-25T17:44:17.767Z,65.85
2022-12-25T17:46:45.171Z,65.89
2022-12-25T17:49:14.966Z,65.75
2022-12-25T17:51:42.383Z,65.89
2022-12-25T17:54:09.752Z,66.07
2022-12-25T17:56:38.551Z,65.98
2022-12-25T17:59:07.969Z,65.99
2022-12-25T18:01:35.905Z,65.96
2022-12-25T18:04:03.476Z,66.02
2022-12-25T18:06:30.992Z,65.76
2022-12-25T18:08:58.514Z,65.79
2022-12-25T18:11:29.070Z,65.96
2022-12-25T18:13:59.578Z,65.99
2022-12-25T18:16:27.566Z,66.00
2022-12-25T18:18:55.045Z,66.10
2022-12-25T18:21:22.817Z,66.23
2022-12-25T18:23:50.383Z,66.24
2022-12-25T18:26:17.812Z,66.22
2022-12-25T18:28:45.255Z,65.99
2022-12-25T18:31:14.702Z,66.10
2022-12-25T18:33:42.128Z,66.14
2022-12-25T18:36:09.764Z,66.07
2022-12-25T18:38:37.152Z,66.04
2022-12-25T18:41:05.195Z,65.97
2022-12-25T18:43:52.095Z,66.06
2022-12-25T18:46:23.790Z,66.01
2022-12-25T18:48:51.546Z,65.99
2022-12-25T18:51:18.990Z,66.08
2022-12-25T18:53:46.399Z,65.87
2022-12-25T18:56:15.434Z,66.06
2022-12-25T18:58:42.828Z,66.17
2022-12-25T19:01:11.816Z,66.06
2022-12-25T19:03:40.575Z,66.02
2022-12-25T19:06:08.210Z,66.05
2022-12-25T19:08:35.605Z,66.09
2022-12-25T19:11:07.405Z,65.99
2022-12-25T19:13:34.819Z,66.18
2022-12-25T19:16:02.293Z,66.03
2022-12-25T19:18:29.692Z,66.16
2022-12-25T19:21:01.482Z,66.07
2022-12-25T19:23:28.868Z,65.92
2022-12-25T19:25:56.261Z,65.93
2022-12-25T19:28:24.926Z,66.21
2022-12-25T19:30:52.832Z,66.00
2022-12-25T19:33:20.316Z,66.21
2022-12-25T19:35:48.816Z,65.93
2022-12-25T19:38:17.542Z,66.08
2022-12-25T19:40:59.991Z,65.88
2022-12-25T19:43:28.246Z,66.02
2022-12-25T19:45:55.694Z,65.99
2022-12-25T19:48:23.119Z,65.86
2022-12-25T19:50:50.672Z,65.90
2022-12-25T19:53:21.345Z,65.93
2022-12-25T19:55:48.730Z,66.01
2022-12-25T19:58:16.129Z,66.14
2022-12-25T20:00:43.568Z,65.89
2022-12-25T20:03:11.047Z,65.91
2022-12-25T20:05:38.436Z,66.01
2022-12-25T20:08:05.893Z,65.94
2022-12-25T20:10:34.600Z,65.94
2022-12-25T20:13:01.986Z,65.87
2022-12-25T20:15:29.402Z,65.97
2022-12-25T20:17:56.795Z,66.18
2022-12-25T20:20:24.207Z,66.13
2022-12-25T20:22:51.626Z,65.90
2022-12-25T20:25:19.019Z,66.01
2022-12-25T20:27:47.727Z,65.92
2022-12-25T20:30:15.256Z,66.06
2022-12-25T20:32:49.783Z,65.95
2022-12-25T20:35:17.869Z,66.03
2022-12-25T20:37:45.332Z,65.94
2022-12-25T20:40:13.472Z,65.89
2022-12-25T20:42:40.937Z,65.92
2022-12-25T20:45:12.323Z,65.97
2022-12-25T20:47:39.737Z,65.93
2022-12-25T20:50:08.336Z,65.86
2022-12-25T20:52:35.756Z,65.90
2022-12-25T20:55:03.171Z,66.03
2022-12-25T20:57:30.565Z,65.68
2022-12-25T20:59:57.958Z,65.83
2022-12-25T21:02:34.454Z,65.98
2022-12-25T21:05:03.423Z,65.98
2022-12-25T21:07:30.817Z,65.90
2022-12-25T21:09:59.073Z,65.88
2022-12-25T21:12:26.487Z,65.97
2022-12-25T21:14:53.879Z,65.85
2022-12-25T21:17:21.392Z,66.13
2022-12-25T21:19:50.127Z,66.11
2022-12-25T21:22:17.520Z,66.02
2022-12-25T21:24:44.939Z,66.09
2022-12-25T21:27:12.358Z,65.97
2022-12-25T21:29:39.949Z,66.08
2022-12-25T21:32:25.413Z,65.93
2022-12-25T21:34:54.109Z,65.92
2022-12-25T21:37:21.535Z,65.96
2022-12-25T21:39:49.892Z,65.93
2022-12-25T21:42:17.336Z,65.84
2022-12-25T21:44:44.753Z,65.94
2022-12-25T21:47:12.151Z,65.90
2022-12-25T21:49:57.325Z,65.95
2022-12-25T21:52:26.043Z,66.03
2022-12-25T21:54:53.516Z,66.10
2022-12-25T21:57:20.925Z,65.92
2022-12-25T21:59:48.824Z,66.09
2022-12-25T22:02:16.380Z,65.92
2022-12-25T22:04:44.074Z,66.03
2022-12-25T22:07:17.767Z,65.94
2022-12-25T22:09:47.175Z,66.21
2022-12-25T22:12:34.488Z,65.95
2022-12-25T22:15:06.379Z,66.16
2022-12-25T22:17:52.541Z,66.02
2022-12-25T22:20:21.227Z,66.29
2022-12-25T22:22:48.721Z,66.32
2022-12-25T22:25:17.686Z,66.08
2022-12-25T22:27:45.824Z,66.41
2022-12-25T22:30:14.428Z,66.09
2022-12-25T22:32:41.927Z,66.30
2022-12-25T22:35:09.897Z,66.28
2022-12-25T22:37:37.408Z,66.11
2022-12-25T22:40:05.829Z,66.38
2022-12-25T22:42:34.954Z,66.27
2022-12-25T22:45:02.453Z,66.24
2022-12-25T22:47:29.867Z,66.11
2022-12-25T22:49:57.262Z,66.14
2022-12-25T22:52:24.702Z,66.17
2022-12-25T22:54:52.094Z,66.14
2022-12-25T22:57:19.517Z,66.13
2022-12-25T22:59:48.212Z,66.05
2022-12-25T23:02:15.829Z,66.05
2022-12-25T23:04:43.524Z,66.02
2022-12-25T23:07:14.134Z,66.02
2022-12-25T23:09:41.571Z,66.03
2022-12-25T23:12:29.002Z,66.25
2022-12-25T23:14:56.966Z,66.37
2022-12-25T23:17:38.360Z,66.53
2022-12-25T23:20:24.152Z,66.60
2022-12-25T23:23:09.003Z,66.59
2022-12-25T23:25:54.149Z,66.76
2022-12-25T23:28:35.722Z,66.50
2022-12-25T23:31:04.482Z,66.73
2022-12-25T23:33:31.878Z,66.78
2022-12-25T23:35:59.281Z,66.88
2022-12-25T23:38:26.701Z,67.24
2022-12-25T23:40:54.065Z,67.22
2022-12-25T23:43:21.496Z,67.32
2022-12-25T23:45:48.906Z,67.47
2022-12-25T23:48:17.625Z,67.42
2022-12-25T23:50:44.994Z,67.64
2022-12-25T23:53:12.412Z,67.60
2022-12-25T23:55:42.077Z,67.64
2022-12-25T23:58:09.525Z,67.54
